Time;durP1;ratioP1;P1;durP2;ratioP2;P2;SDS_P1;SDS_P2;PMS_P1;PMS_P2;Temp;Humidity;BMP_temperature;BMP_pressure;BME280_temperature;BME280_humidity;BME280_pressure;Samples;Min_cycle;Max_cycle;Signal;HPM_P1;HPM_P2
2022/04/04 00:02:03;;;;;;;11.50;6.88;;;;;;;5.04;63.99;101792.63;5074751;28;20424;-56
2022/04/04 00:04:30;;;;;;;11.98;6.93;;;;;;;4.98;63.86;101788.16;5075069;28;20500;-58
2022/04/04 00:07:02;;;;;;;16.88;7.20;;;;;;;4.89;64.15;101793.22;5071984;28;20060;-57
2022/04/04 00:09:30;;;;;;;13.27;6.25;;;;;;;4.86;64.41;101795.63;5069390;28;20044;-58
2022/04/04 00:11:57;;;;;;;10.07;6.60;;;;;;;4.88;64.17;101797.00;5074030;28;20052;-58
2022/04/04 00:14:25;;;;;;;12.75;6.97;;;;;;;5.07;64.05;101787.50;5073254;28;20056;-57
2022/04/04 00:16:52;;;;;;;13.20;6.43;;;;;;;5.18;63.38;101794.72;5074485;28;20044;-58
2022/04/04 00:19:22;;;;;;;8.77;6.32;;;;;;;5.22;63.50;101789.59;5074472;28;20516;-60
2022/04/04 00:21:49;;;;;;;14.73;6.40;;;;;;;5.07;63.20;101792.13;5074572;28;20052;-59
2022/04/04 00:24:17;;;;;;;13.57;6.45;;;;;;;4.65;64.40;101793.63;5074184;28;20052;-59
2022/04/04 00:26:45;;;;;;;11.63;6.50;;;;;;;4.64;64.75;101792.78;5071966;28;20044;-57
2022/04/04 00:29:12;;;;;;;13.88;6.22;;;;;;;4.67;64.87;101791.50;5067849;28;20057;-56
2022/04/04 00:31:40;;;;;;;10.02;6.13;;;;;;;4.89;64.34;101782.28;5074776;28;20045;-56
2022/04/04 00:34:08;;;;;;;13.50;6.68;;;;;;;4.94;64.03;101781.53;5077875;28;20056;-59
2022/04/04 00:36:35;;;;;;;13.10;6.55;;;;;;;5.16;62.94;101772.31;5078334;28;20054;-56
2022/04/04 00:39:02;;;;;;;9.48;5.72;;;;;;;5.19;62.43;101780.00;5078172;28;20377;-57
2022/04/04 00:41:30;;;;;;;12.55;5.93;;;;;;;4.94;62.62;101776.91;5077665;28;20052;-59
2022/04/04 00:43:57;;;;;;;9.88;5.93;;;;;;;4.85;63.15;101783.03;5069825;28;20055;-59
2022/04/04 00:46:25;;;;;;;9.45;5.82;;;;;;;4.69;63.16;101789.34;5077508;28;20053;-56
2022/04/04 00:48:52;;;;;;;10.00;5.45;;;;;;;4.57;63.23;101778.50;5077820;28;20060;-60
2022/04/04 00:51:19;;;;;;;12.52;6.65;;;;;;;4.49;63.78;101771.56;5079579;28;20048;-57
2022/04/04 00:53:47;;;;;;;9.82;5.68;;;;;;;4.63;63.53;101779.41;5077748;28;20060;-59
2022/04/04 00:56:14;;;;;;;15.23;6.00;;;;;;;4.64;63.16;101786.53;5075918;28;20052;-56
2022/04/04 00:58:41;;;;;;;14.25;5.93;;;;;;;4.54;63.57;101779.00;5075249;28;20053;-58
2022/04/04 01:01:09;;;;;;;10.45;6.38;;;;;;;4.47;63.45;101775.59;5072863;28;20048;-59
2022/04/04 01:03:36;;;;;;;10.73;5.90;;;;;;;4.49;63.40;101778.91;5077493;28;20592;-57
2022/04/04 01:06:03;;;;;;;9.73;6.18;;;;;;;4.44;63.90;101774.22;5077221;28;20052;-56
2022/04/04 01:08:31;;;;;;;13.10;5.90;;;;;;;4.47;63.93;101770.97;5076158;28;20048;-55
2022/04/04 01:10:58;;;;;;;10.50;5.60;;;;;;;4.43;64.32;101772.53;5075974;28;20499;-56
2022/04/04 01:13:26;;;;;;;13.85;6.35;;;;;;;4.51;64.09;101774.88;5077172;28;20529;-56
2022/04/04 01:15:53;;;;;;;9.02;5.65;;;;;;;4.74;63.76;101765.69;5076231;28;20051;-58
2022/04/04 01:18:20;;;;;;;11.10;6.00;;;;;;;4.67;63.50;101766.94;5076589;28;20055;-59
2022/04/04 01:20:49;;;;;;;11.38;5.90;;;;;;;4.73;62.96;101755.00;5077444;28;20063;-60
2022/04/04 01:23:24;;;;;;;10.10;5.68;;;;;;;4.72;62.80;101767.00;5075081;28;20056;-57
2022/04/04 01:25:51;;;;;;;11.00;6.22;;;;;;;4.69;63.16;101764.78;5074638;28;20044;-58
2022/04/04 01:28:19;;;;;;;8.57;5.68;;;;;;;4.80;62.85;101756.50;5077242;28;20059;-54
2022/04/04 01:30:51;;;;;;;12.00;5.50;;;;;;;4.78;62.12;101755.09;5076676;28;20059;-56
2022/04/04 01:33:18;;;;;;;12.63;5.60;;;;;;;4.63;62.35;101757.56;5080712;28;20049;-59
2022/04/04 01:35:47;;;;;;;9.38;5.53;;;;;;;4.62;62.53;101758.66;5065657;28;20060;-56
2022/04/04 01:38:14;;;;;;;10.90;5.13;;;;;;;4.62;62.47;101755.94;5076791;28;20056;-55
2022/04/04 01:40:42;;;;;;;11.45;5.20;;;;;;;4.60;62.22;101756.19;5075261;28;20049;-58
2022/04/04 01:43:09;;;;;;;9.40;4.65;;;;;;;4.63;61.53;101750.22;5065422;28;20040;-56
2022/04/04 01:48:23;;;;;;;11.25;5.20;;;;;;;4.77;61.05;101739.78;5074417;28;20064;-60
2022/04/04 01:50:50;;;;;;;10.70;5.15;;;;;;;4.72;61.42;101742.44;5074646;28;20055;-57
2022/04/04 01:53:27;;;;;;;11.02;5.65;;;;;;;4.85;61.26;101736.63;5060564;28;20044;-56
2022/04/04 01:55:57;;;;;;;11.57;5.25;;;;;;;5.08;60.98;101730.94;5069086;28;20052;-57
2022/04/04 01:58:25;;;;;;;10.02;5.32;;;;;;;5.16;60.95;101736.81;5076315;28;20056;-57
2022/04/04 02:00:56;;;;;;;11.20;5.10;;;;;;;5.27;60.81;101733.13;5075197;28;20060;-57
2022/04/04 02:03:25;;;;;;;11.60;5.35;;;;;;;5.28;59.96;101733.97;5076129;28;20044;-60
2022/04/04 02:05:53;;;;;;;13.35;5.55;;;;;;;5.14;60.34;101732.69;5076086;28;20064;-57
2022/04/04 02:08:20;;;;;;;12.13;5.53;;;;;;;5.12;60.09;101718.44;5076000;28;20059;-64
2022/04/04 02:10:48;;;;;;;9.60;5.78;;;;;;;5.14;60.27;101719.88;5075815;28;20052;-58
2022/04/04 02:13:15;;;;;;;9.93;5.60;;;;;;;5.20;59.38;101724.31;5075751;28;20491;-58
2022/04/04 02:15:43;;;;;;;9.73;5.50;;;;;;;4.96;60.57;101725.63;5075857;28;20060;-55
2022/04/04 02:18:11;;;;;;;10.90;5.20;;;;;;;5.01;60.29;101725.69;5074146;28;20064;-58
2022/04/04 02:20:38;;;;;;;9.25;5.10;;;;;;;5.21;60.01;101719.66;5075747;28;20048;-59
2022/04/04 02:23:06;;;;;;;9.68;5.18;;;;;;;5.18;59.80;101717.44;5074001;28;20049;-57
2022/04/04 02:25:34;;;;;;;9.68;4.78;;;;;;;5.15;59.67;101712.47;5075545;28;20048;-55
2022/04/04 02:28:02;;;;;;;8.27;4.78;;;;;;;4.95;59.87;101706.75;5075764;28;20078;-54
2022/04/04 02:30:29;;;;;;;10.23;4.75;;;;;;;5.09;59.56;101699.84;5075138;28;20065;-54
2022/04/04 02:32:56;;;;;;;9.90;5.43;;;;;;;4.94;59.92;101703.19;5075315;28;20047;-54
2022/04/04 02:35:24;;;;;;;11.80;5.30;;;;;;;5.17;59.74;101700.22;5077427;28;20063;-55
2022/04/04 02:37:51;;;;;;;11.43;4.93;;;;;;;4.85;59.90;101706.59;5075545;28;20047;-53
2022/04/04 02:40:18;;;;;;;10.95;5.75;;;;;;;4.70;60.95;101706.38;5074939;28;20054;-56
2022/04/04 02:42:47;;;;;;;10.38;5.53;;;;;;;4.78;60.87;101704.06;5066869;28;20049;-53
2022/04/04 02:45:14;;;;;;;10.23;5.60;;;;;;;4.72;61.24;101699.63;5088966;28;20067;-55
2022/04/04 02:47:42;;;;;;;11.85;6.13;;;;;;;4.89;60.56;101699.56;5074887;28;20049;-55
2022/04/04 02:50:10;;;;;;;11.50;5.90;;;;;;;4.76;60.74;101700.75;5075151;28;20059;-54
2022/04/04 02:52:38;;;;;;;11.35;6.57;;;;;;;4.85;61.04;101698.41;5074604;28;20041;-54
2022/04/04 02:57:52;;;;;;;15.13;5.90;;;;;;;5.03;60.45;101698.13;5064836;28;20059;-53
2022/04/04 03:00:19;;;;;;;10.57;6.60;;;;;;;4.90;60.52;101704.78;5075052;28;20048;-52
2022/04/04 03:02:47;;;;;;;10.80;6.55;;;;;;;4.78;61.37;101697.78;5075077;28;20036;-55
2022/04/04 03:05:15;;;;;;;18.60;7.22;;;;;;;4.64;61.69;101697.28;5073793;28;20056;-56
2022/04/04 03:07:42;;;;;;;13.65;7.43;;;;;;;4.57;62.11;101700.22;5075028;28;20056;-57
2022/04/04 03:10:10;;;;;;;12.98;6.95;;;;;;;4.58;62.48;101692.84;5074635;28;20075;-57
2022/04/04 03:12:45;;;;;;;14.00;7.65;;;;;;;4.75;62.00;101692.81;5074984;28;20132;-53
2022/04/04 03:15:15;;;;;;;11.77;7.85;;;;;;;4.75;61.53;101688.19;5084712;28;20519;-54
2022/04/04 03:17:44;;;;;;;17.40;7.50;;;;;;;4.75;62.22;101698.28;5067979;28;20063;-52
2022/04/04 03:20:12;;;;;;;14.65;7.43;;;;;;;4.79;61.63;101691.25;5061801;28;20515;-55
2022/04/04 03:22:42;;;;;;;12.98;7.70;;;;;;;4.68;61.64;101687.53;5090519;28;20048;-51
2022/04/04 03:25:11;;;;;;;13.23;7.68;;;;;;;4.49;62.19;101684.28;5074929;28;20059;-54
2022/04/04 03:27:39;;;;;;;12.07;7.43;;;;;;;4.33;62.86;101679.66;5074655;28;20053;-53
2022/04/04 03:30:13;;;;;;;11.98;7.38;;;;;;;4.53;62.64;101677.22;5074786;28;20291;-55
2022/04/04 03:32:40;;;;;;;11.80;7.57;;;;;;;4.65;62.03;101673.56;5073294;28;20048;-54
2022/04/04 03:35:08;;;;;;;12.65;7.00;;;;;;;4.70;61.91;101673.66;5073120;28;20056;-53
2022/04/04 03:37:36;;;;;;;11.70;7.40;;;;;;;4.85;61.37;101668.38;5074715;28;20408;-57
2022/04/04 03:40:05;;;;;;;13.65;7.05;;;;;;;4.75;61.43;101660.06;5074624;28;20046;-55
2022/04/04 03:42:32;;;;;;;12.80;7.53;;;;;;;4.95;61.09;101663.09;5070320;28;20057;-53
2022/04/04 03:45:00;;;;;;;12.30;6.65;;;;;;;4.64;61.13;101661.81;5074644;28;20052;-56
2022/04/04 03:47:28;;;;;;;13.30;7.93;;;;;;;4.77;60.77;101655.19;5074044;28;20052;-57
2022/04/04 03:49:55;;;;;;;11.38;7.45;;;;;;;4.50;61.65;101650.44;5074631;28;20052;-55
2022/04/04 03:52:22;;;;;;;10.30;7.32;;;;;;;4.59;61.19;101650.84;5074497;28;20411;-56
2022/04/04 03:54:50;;;;;;;11.60;7.28;;;;;;;4.66;60.89;101656.94;5067243;28;20049;-57
2022/04/04 03:57:17;;;;;;;11.95;6.57;;;;;;;4.40;61.34;101644.00;5074365;28;20048;-57
2022/04/04 03:59:44;;;;;;;12.43;7.03;;;;;;;4.51;61.36;101646.66;5074578;28;20055;-55
2022/04/04 04:02:12;;;;;;;14.32;6.90;;;;;;;4.50;61.29;101642.25;5076600;28;20048;-56
2022/04/04 04:04:40;;;;;;;12.48;6.68;;;;;;;4.49;61.19;101645.25;5074532;28;20541;-55
2022/04/04 04:07:10;;;;;;;12.85;6.82;;;;;;;4.42;61.38;101648.16;5078320;28;20045;-52
2022/04/04 04:09:38;;;;;;;15.57;7.07;;;;;;;4.33;61.46;101649.66;5078438;28;20048;-55
2022/04/04 04:12:05;;;;;;;12.23;5.95;;;;;;;4.38;61.51;101640.72;5085497;28;20052;-56
2022/04/04 04:14:33;;;;;;;11.07;6.80;;;;;;;4.15;62.16;101639.00;5083848;28;20469;-52
2022/04/04 04:17:00;;;;;;;13.32;6.63;;;;;;;4.36;61.83;101635.50;5075837;28;20066;-55
2022/04/04 04:22:14;;;;;;;11.10;6.70;;;;;;;4.17;61.60;101628.66;5076471;28;20063;-56
2022/04/04 04:24:41;;;;;;;14.48;7.10;;;;;;;4.42;61.50;101629.06;5077999;28;20045;-55
2022/04/04 04:27:09;;;;;;;11.15;6.93;;;;;;;4.38;61.32;101632.53;5078151;28;20408;-52
2022/04/04 04:29:36;;;;;;;10.52;6.68;;;;;;;4.29;61.58;101620.38;5077723;28;20049;-56
2022/04/04 04:32:04;;;;;;;13.40;7.43;;;;;;;4.57;60.86;101621.09;5077944;28;20662;-54
2022/04/04 04:34:31;;;;;;;14.23;7.13;;;;;;;4.55;60.46;101622.41;5076282;28;20044;-56
2022/04/04 04:36:58;;;;;;;13.27;7.00;;;;;;;4.28;61.10;101613.28;5077811;28;20488;-54
2022/04/04 04:39:26;;;;;;;12.38;6.70;;;;;;;4.39;60.60;101621.38;5077906;28;20056;-53
2022/04/04 04:41:55;;;;;;;10.40;7.03;;;;;;;4.27;61.24;101614.38;5077433;28;20056;-61
2022/04/04 04:44:22;;;;;;;10.88;6.53;;;;;;;4.39;60.94;101606.91;5064843;28;20452;-54
2022/04/04 04:46:53;;;;;;;11.23;6.63;;;;;;;4.60;60.08;101606.94;5077544;28;20071;-56
2022/04/04 04:49:22;;;;;;;13.90;7.03;;;;;;;4.34;60.76;101602.19;5077680;28;20045;-54
2022/04/04 04:51:49;;;;;;;13.27;6.32;;;;;;;4.44;60.36;101602.38;5075534;28;20057;-52
2022/04/04 04:54:17;;;;;;;11.15;6.72;;;;;;;4.58;59.36;101611.81;5055916;28;20522;-53
2022/04/04 04:56:44;;;;;;;13.32;6.35;;;;;;;4.27;60.36;101608.94;5070597;28;20056;-56
2022/04/04 04:59:13;;;;;;;12.30;6.50;;;;;;;4.32;60.91;101612.53;5077761;28;20082;-54
2022/04/04 05:01:41;;;;;;;11.57;6.28;;;;;;;4.21;61.29;101602.56;5077432;28;20044;-53
2022/04/04 05:04:08;;;;;;;10.80;6.75;;;;;;;4.18;61.45;101611.25;5077362;28;20045;-56
2022/04/04 05:06:35;;;;;;;12.23;6.40;;;;;;;4.52;60.74;101610.09;5076978;28;20059;-56
2022/04/04 05:09:02;;;;;;;11.60;5.80;;;;;;;4.46;60.51;101602.91;5059705;28;20056;-57
2022/04/04 05:11:30;;;;;;;12.10;6.20;;;;;;;4.46;60.88;101605.66;5075034;28;20060;-55
2022/04/04 05:13:57;;;;;;;10.75;6.38;;;;;;;4.51;60.82;101604.91;5076778;28;20404;-50
2022/04/04 05:16:28;;;;;;;12.32;6.53;;;;;;;4.48;60.73;101608.94;5076068;28;20067;-56
2022/04/04 05:18:56;;;;;;;15.43;6.35;;;;;;;4.66;60.02;101607.84;5075998;28;20052;-58
2022/04/04 05:21:23;;;;;;;12.43;5.90;;;;;;;4.48;60.46;101602.69;5075738;28;20504;-58
2022/04/04 05:23:51;;;;;;;13.30;6.63;;;;;;;4.52;60.58;101601.09;5072680;28;20058;-59
2022/04/04 05:26:18;;;;;;;10.82;6.30;;;;;;;4.70;59.99;101599.97;5072737;28;20689;-60
2022/04/04 05:28:45;;;;;;;13.57;6.40;;;;;;;4.87;59.52;101604.28;5076924;28;20048;-57
2022/04/04 05:31:13;;;;;;;11.75;6.68;;;;;;;4.62;59.98;101605.88;5076668;28;20045;-58
2022/04/04 05:33:40;;;;;;;10.48;6.10;;;;;;;4.20;60.85;101600.09;5075759;28;20056;-59
2022/04/04 05:36:08;;;;;;;10.38;6.05;;;;;;;4.13;60.94;101613.06;5076636;28;20053;-59
2022/04/04 05:38:35;;;;;;;9.30;6.03;;;;;;;4.50;61.18;101603.25;5076789;28;20049;-58
2022/04/04 05:41:02;;;;;;;11.13;6.32;;;;;;;4.40;60.84;101612.13;5046419;28;20052;-59
2022/04/04 05:43:29;;;;;;;12.63;6.90;;;;;;;4.35;61.14;101603.03;5074453;28;20048;-58
2022/04/04 05:45:57;;;;;;;12.70;6.95;;;;;;;4.31;60.65;101596.44;5076047;28;20057;-56
2022/04/04 05:48:30;;;;;;;15.93;6.88;;;;;;;4.27;60.90;101601.56;5074574;28;20060;-57
2022/04/04 05:50:57;;;;;;;12.55;7.20;;;;;;;3.94;62.03;101598.84;5076684;28;20048;-58
2022/04/04 05:53:25;;;;;;;15.45;6.75;;;;;;;3.96;62.40;101601.31;5071479;28;20036;-61
2022/04/04 05:55:52;;;;;;;20.00;6.63;;;;;;;4.18;61.80;101599.50;5062471;28;20056;-59
2022/04/04 05:58:19;;;;;;;10.70;5.97;;;;;;;4.32;61.40;101603.53;5063498;28;20047;-58
2022/04/04 06:00:46;;;;;;;10.18;6.82;;;;;;;4.01;61.76;101604.97;5069269;28;20053;-59
2022/04/04 06:03:14;;;;;;;12.82;6.40;;;;;;;4.27;61.59;101603.47;5074655;28;20052;-57
2022/04/04 06:05:41;;;;;;;14.52;6.82;;;;;;;4.17;61.48;101598.69;5063928;28;20060;-57
2022/04/04 06:08:09;;;;;;;13.13;6.05;;;;;;;4.04;62.07;101601.75;5075832;28;20051;-58
2022/04/04 06:10:36;;;;;;;11.95;5.80;;;;;;;4.11;61.78;101596.13;5075707;28;20393;-58
2022/04/04 06:13:03;;;;;;;9.27;5.90;;;;;;;4.18;61.15;101607.69;5072309;28;20052;-59
2022/04/04 06:15:31;;;;;;;18.80;7.13;;;;;;;4.09;62.10;101585.47;5074897;28;20045;-57
2022/04/04 06:17:58;;;;;;;15.50;6.88;;;;;;;4.23;61.63;101594.97;5062715;28;20044;-56
2022/04/04 06:20:25;;;;;;;11.27;6.30;;;;;;;4.29;61.63;101590.38;5074984;28;20080;-56
2022/04/04 06:22:53;;;;;;;10.20;5.88;;;;;;;4.64;60.50;101590.88;5069640;28;20048;-60
2022/04/04 06:25:21;;;;;;;32.83;19.58;;;;;;;4.82;59.98;101589.75;5073429;28;20051;-59
2022/04/04 06:27:49;;;;;;;19.58;7.53;;;;;;;5.02;60.07;101584.53;5073961;28;20059;-59
2022/04/04 06:30:17;;;;;;;10.30;6.00;;;;;;;5.08;59.64;101588.97;5074705;28;20504;-59
2022/04/04 06:32:45;;;;;;;11.27;5.85;;;;;;;5.22;59.59;101587.50;5073942;28;20048;-59
2022/04/04 06:35:13;;;;;;;13.18;6.07;;;;;;;5.54;59.34;101588.38;5069487;28;20051;-59
2022/04/04 06:37:41;;;;;;;18.10;6.00;;;;;;;5.75;62.11;101573.81;5068884;28;20044;-64
2022/04/04 06:40:10;;;;;;;11.55;5.07;;;;;;;5.84;61.70;101577.72;5065107;28;20041;-56
2022/04/04 06:42:39;;;;;;;9.45;5.47;;;;;;;5.64;57.48;101580.25;5069164;28;20472;-60
2022/04/04 06:45:07;;;;;;;13.13;5.13;;;;;;;5.47;57.15;101582.28;5070935;28;20523;-58
2022/04/04 06:47:34;;;;;;;12.10;6.00;;;;;;;5.42;56.73;101576.78;5085178;28;20064;-60
2022/04/04 06:50:02;;;;;;;14.13;5.78;;;;;;;5.41;56.51;101570.50;5066300;28;20060;-60
2022/04/04 06:52:30;;;;;;;16.92;5.18;;;;;;;5.28;56.44;101581.81;5072283;28;20500;-60
2022/04/04 06:54:58;;;;;;;11.02;4.72;;;;;;;5.38;55.29;101573.75;5069806;28;20056;-62
2022/04/04 06:57:26;;;;;;;16.02;5.10;;;;;;;5.28;55.38;101572.81;5070135;28;20544;-58
2022/04/04 06:59:59;;;;;;;9.52;5.03;;;;;;;5.01;56.14;101571.97;5074261;28;20044;-58
2022/04/04 07:02:27;;;;;;;10.23;4.53;;;;;;;5.03;55.23;101570.63;5074237;28;20049;-59
2022/04/04 07:04:54;;;;;;;7.35;4.53;;;;;;;5.34;54.36;101569.03;5073574;28;20048;-61
2022/04/04 07:07:22;;;;;;;10.77;3.90;;;;;;;5.09;53.74;101571.53;5068410;28;20448;-61
2022/04/04 07:09:50;;;;;;;10.18;3.78;;;;;;;5.33;53.38;101567.41;5064491;28;20053;-60
2022/04/04 07:12:17;;;;;;;9.18;4.28;;;;;;;5.30;52.22;101563.25;5064887;28;20045;-62
2022/04/04 07:14:44;;;;;;;7.22;3.30;;;;;;;5.40;52.47;101559.81;5068638;28;20044;-62
2022/04/04 07:17:12;;;;;;;9.30;3.53;;;;;;;5.34;52.40;101556.22;5080771;28;20467;-61
2022/04/04 07:19:39;;;;;;;7.57;3.40;;;;;;;5.44;52.34;101553.56;5071837;28;20049;-59
2022/04/04 07:22:06;;;;;;;13.23;3.65;;;;;;;5.48;52.03;101557.44;5074617;28;20159;-62
2022/04/04 07:24:34;;;;;;;6.40;3.53;;;;;;;5.41;51.71;101550.53;5064924;28;20048;-59
2022/04/04 07:27:01;;;;;;;8.05;4.00;;;;;;;5.53;51.74;101553.91;5071296;28;20066;-59
2022/04/04 07:29:28;;;;;;;9.60;4.05;;;;;;;5.84;51.65;101539.44;5069167;28;20043;-59
2022/04/04 07:31:56;;;;;;;9.18;4.40;;;;;;;5.90;50.96;101545.78;5061277;28;20053;-60
2022/04/04 07:34:23;;;;;;;13.45;5.05;;;;;;;5.67;51.26;101541.47;5072498;28;20048;-61
2022/04/04 07:36:51;;;;;;;7.68;3.97;;;;;;;5.54;51.96;101537.25;5081362;28;20468;-62
2022/04/04 07:39:18;;;;;;;9.93;4.40;;;;;;;5.82;52.31;101532.56;5074268;28;20044;-61
2022/04/04 07:41:45;;;;;;;12.77;4.32;;;;;;;5.98;51.10;101535.16;5071243;28;20064;-59
2022/04/04 07:44:12;;;;;;;7.40;4.15;;;;;;;6.00;50.80;101527.53;5069661;28;20057;-59
2022/04/04 07:46:40;;;;;;;17.73;4.68;;;;;;;6.24;50.65;101522.50;5066377;28;20664;-61
2022/04/04 07:49:07;;;;;;;7.68;4.25;;;;;;;6.43;49.63;101523.69;5068600;28;20047;-61
2022/04/04 07:51:35;;;;;;;8.20;3.97;;;;;;;6.15;50.03;101529.56;5069362;28;20044;-61
2022/04/04 07:54:02;;;;;;;9.07;4.22;;;;;;;6.10;50.15;101522.13;5067797;28;20048;-60
2022/04/04 07:56:29;;;;;;;9.57;3.63;;;;;;;6.33;49.33;101520.91;5066894;28;20064;-61
2022/04/04 07:58:57;;;;;;;9.40;3.20;;;;;;;6.27;49.37;101514.59;5070235;28;20053;-60
2022/04/04 08:01:24;;;;;;;10.60;3.70;;;;;;;6.45;48.90;101507.84;5069118;28;20056;-60
2022/04/04 08:03:53;;;;;;;8.75;4.22;;;;;;;6.70;48.78;101514.22;5070220;28;20057;-59
2022/04/04 08:06:20;;;;;;;12.25;3.75;;;;;;;6.58;48.57;101501.84;5073119;28;20052;-61
2022/04/04 08:08:47;;;;;;;11.32;6.30;;;;;;;6.68;48.46;101508.19;5074114;28;20056;-59
2022/04/04 08:11:14;;;;;;;9.38;4.07;;;;;;;6.87;48.16;101494.03;5039268;28;20057;-62
2022/04/04 08:13:44;;;;;;;10.07;3.92;;;;;;;7.06;48.89;101500.63;5072080;28;20051;-60
2022/04/04 08:16:11;;;;;;;12.95;3.80;;;;;;;7.26;48.93;101498.75;5071718;28;20077;-61
2022/04/04 08:18:39;;;;;;;11.88;3.80;;;;;;;7.21;47.70;101495.19;5072104;28;20056;-62
2022/04/04 08:21:07;;;;;;;8.82;3.72;;;;;;;7.27;47.24;101491.34;5073536;28;20399;-63
2022/04/04 08:23:34;;;;;;;10.98;3.60;;;;;;;7.16;48.20;101496.00;5074813;28;20063;-58
2022/04/04 08:26:02;;;;;;;6.60;3.40;;;;;;;7.15;46.56;101490.81;5069774;28;20052;-58
2022/04/04 08:28:29;;;;;;;6.53;3.28;;;;;;;7.34;46.12;101475.47;5064639;28;20115;-61
2022/04/04 08:30:57;;;;;;;6.40;3.08;;;;;;;7.20;46.42;101482.59;5070075;28;20389;-58
2022/04/04 08:33:25;;;;;;;7.53;3.08;;;;;;;7.01;46.99;101473.25;5063466;28;20045;-59
2022/04/04 08:35:53;;;;;;;8.45;3.00;;;;;;;7.22;46.82;101478.47;5071482;28;20047;-59
2022/04/04 08:38:20;;;;;;;9.98;2.92;;;;;;;7.25;46.46;101477.09;5067335;28;20060;-58
2022/04/04 08:40:50;;;;;;;8.05;2.50;;;;;;;7.10;46.38;101469.69;5071976;28;20056;-59
2022/04/04 08:43:18;;;;;;;8.27;2.67;;;;;;;7.24;47.09;101467.22;5081557;28;20182;-58
2022/04/04 08:45:48;;;;;;;9.27;3.03;;;;;;;7.19;45.84;101470.78;5072187;28;20049;-58
2022/04/04 08:48:17;;;;;;;5.10;2.70;;;;;;;7.08;46.35;101469.13;5067663;28;20059;-56
2022/04/04 08:50:45;;;;;;;7.18;2.55;;;;;;;7.22;46.91;101458.47;5069502;28;20049;-58
2022/04/04 08:53:14;;;;;;;9.15;3.03;;;;;;;7.19;46.33;101451.63;5077299;28;20045;-61
2022/04/04 08:55:41;;;;;;;12.18;3.38;;;;;;;7.35;46.13;101450.53;5076675;28;20052;-58
2022/04/04 08:58:10;;;;;;;7.57;3.58;;;;;;;7.61;45.99;101449.41;5074638;28;20057;-60
2022/04/04 09:00:38;;;;;;;14.27;4.03;;;;;;;8.16;45.29;101442.16;5075682;28;20052;-61
2022/04/04 09:03:10;;;;;;;10.88;3.95;;;;;;;8.06;43.35;101445.75;5066527;28;20053;-58
2022/04/04 09:05:51;;;;;;;10.90;4.03;;;;;;;8.02;44.17;101440.00;5056170;28;20049;-60
2022/04/04 09:08:23;;;;;;;12.75;4.68;;;;;;;8.18;44.34;101440.75;5070209;28;20642;-61
2022/04/04 09:10:54;;;;;;;8.15;3.65;;;;;;;7.94;43.06;101446.06;5076646;28;20052;-56
2022/04/04 09:13:24;;;;;;;6.28;2.90;;;;;;;8.34;44.21;101436.06;5076074;28;20048;-60
2022/04/04 09:15:53;;;;;;;8.82;2.30;;;;;;;8.58;43.63;101437.03;5076204;28;20052;-56
2022/04/04 09:18:36;;;;;;;5.95;2.90;;;;;;;8.66;41.59;101433.72;5065920;28;20053;-60
2022/04/04 09:21:05;;;;;;;6.82;2.22;;;;;;;8.56;41.00;101433.78;5064714;28;20045;-57
2022/04/04 09:23:42;;;;;;;3.65;1.67;;;;;;;8.35;41.31;101427.53;5072202;28;20067;-59
2022/04/04 09:26:26;;;;;;;4.10;1.70;;;;;;;8.08;40.67;101424.34;5068313;28;20055;-59
2022/04/04 09:28:53;;;;;;;3.70;2.05;;;;;;;8.21;40.36;101428.41;5076332;28;20056;-57
2022/04/04 09:31:21;;;;;;;2.97;1.65;;;;;;;8.40;40.06;101415.75;5062835;28;20523;-58
2022/04/04 09:33:48;;;;;;;3.58;1.55;;;;;;;8.73;40.78;101406.78;5069718;28;20535;-58
2022/04/04 09:36:15;;;;;;;6.10;1.70;;;;;;;8.91;39.65;101415.16;5067188;28;20045;-58
2022/04/04 09:38:50;;;;;;;2.53;1.23;;;;;;;8.62;38.73;101408.75;5077015;28;20058;-60
2022/04/04 09:41:18;;;;;;;5.20;1.40;;;;;;;8.58;37.97;101410.41;5074183;28;20488;-58
2022/04/04 09:43:57;;;;;;;3.20;1.63;;;;;;;8.51;37.97;101404.41;5076390;28;20064;-58
2022/04/04 09:46:34;;;;;;;5.78;1.40;;;;;;;8.54;38.19;101406.59;5075692;28;20095;-55
2022/04/04 09:49:08;;;;;;;4.10;1.50;;;;;;;8.60;38.11;101394.47;5070603;28;20044;-58
2022/04/04 09:51:38;;;;;;;6.90;1.85;;;;;;;8.97;38.02;101389.28;5075619;28;20040;-64
2022/04/04 09:54:09;;;;;;;7.72;1.77;;;;;;;9.03;36.66;101384.59;5075143;28;20053;-60
2022/04/04 09:56:37;;;;;;;5.18;1.50;;;;;;;9.11;38.36;101394.94;5076331;28;20056;-59
2022/04/04 09:59:05;;;;;;;2.90;1.58;;;;;;;9.05;38.65;101380.44;5076407;28;20056;-56
2022/04/04 10:01:33;;;;;;;3.75;1.60;;;;;;;9.04;37.55;101369.72;5070203;28;20044;-59
2022/04/04 10:04:02;;;;;;;6.25;1.70;;;;;;;9.04;37.17;101373.31;5070736;28;20479;-59
2022/04/04 10:06:30;;;;;;;5.88;1.63;;;;;;;9.08;36.88;101373.56;5076242;28;20075;-56
2022/04/04 10:08:59;;;;;;;5.00;1.80;;;;;;;9.00;37.36;101371.41;5075375;28;20049;-58
2022/04/04 10:11:28;;;;;;;6.43;1.92;;;;;;;9.01;37.45;101371.09;5091123;28;20044;-60
2022/04/04 10:13:55;;;;;;;5.32;2.03;;;;;;;8.97;37.94;101371.97;5073933;28;20051;-61
2022/04/04 10:16:27;;;;;;;12.07;2.20;;;;;;;8.91;38.14;101376.69;5075886;28;20048;-58
2022/04/04 10:18:55;;;;;;;5.85;2.42;;;;;;;9.13;39.15;101360.56;5075599;28;20060;-59
2022/04/04 10:21:25;;;;;;;6.68;2.08;;;;;;;9.14;37.73;101355.88;5075865;28;20074;-57
2022/04/04 10:23:56;;;;;;;3.97;1.67;;;;;;;9.23;37.57;101347.84;5074246;28;20052;-59
2022/04/04 10:26:34;;;;;;;4.95;1.83;;;;;;;9.57;38.72;101356.88;5069918;28;20049;-57
2022/04/04 10:29:22;;;;;;;8.13;1.98;;;;;;;9.73;36.69;101344.56;5075078;28;20052;-62
2022/04/04 10:31:57;;;;;;;7.00;1.80;;;;;;;9.58;35.70;101345.56;5075527;28;20057;-61
2022/04/04 10:34:25;;;;;;;9.00;2.00;;;;;;;10.06;34.76;101329.84;5070947;28;20059;-62
2022/04/04 10:37:07;;;;;;;15.52;6.00;;;;;;;9.90;34.57;101337.47;5071496;28;20099;-61
2022/04/04 10:39:47;;;;;;;7.40;3.40;;;;;;;9.83;34.76;101330.72;5068033;28;20056;-61
2022/04/04 10:42:34;;;;;;;9.75;4.88;;;;;;;9.86;34.91;101325.44;5070715;28;20060;-59
2022/04/04 10:45:11;;;;;;;7.90;3.13;;;;;;;9.58;34.59;101320.81;5068183;28;20058;-61
2022/04/04 10:47:43;;;;;;;8.82;3.65;;;;;;;9.59;35.24;101327.16;5074269;28;20512;-56
2022/04/04 10:50:33;;;;;;;6.55;2.70;;;;;;;9.73;34.04;101322.56;5070979;28;20044;-58
2022/04/04 10:53:02;;;;;;;5.65;2.50;;;;;;;9.45;34.14;101321.50;5062816;28;20041;-63
2022/04/04 10:55:36;;;;;;;7.13;2.27;;;;;;;9.91;33.64;101310.78;5053913;28;20069;-63
2022/04/04 10:58:20;;;;;;;7.35;2.35;;;;;;;9.74;33.60;101300.28;5074383;28;20337;-62
2022/04/04 11:00:55;;;;;;;5.50;2.60;;;;;;;10.29;34.77;101292.44;5064388;28;20491;-60
2022/04/04 11:03:39;;;;;;;7.20;2.58;;;;;;;10.53;33.51;101296.72;5061159;28;20053;-65
2022/04/04 11:09:18;;;;;;;7.03;2.58;;;;;;;10.92;33.61;101277.91;5074364;28;20056;-61
2022/04/04 11:12:08;;;;;;;12.35;3.10;;;;;;;10.77;33.19;101280.91;5066396;28;20045;-60
2022/04/04 11:14:46;;;;;;;6.72;3.13;;;;;;;10.34;33.75;101278.59;5070446;28;20053;-60
2022/04/04 11:17:19;;;;;;;8.98;3.10;;;;;;;10.79;34.05;101267.63;5067027;28;20045;-61
2022/04/04 11:20:02;;;;;;;28.25;9.70;;;;;;;11.29;33.65;101255.72;5053895;28;20045;-63
2022/04/04 11:22:41;;;;;;;12.68;5.05;;;;;;;11.31;33.89;101247.94;5073516;28;20052;-62
2022/04/04 11:25:22;;;;;;;8.20;3.20;;;;;;;11.52;32.41;101240.09;5074130;28;20048;-60
2022/04/04 11:27:49;;;;;;;5.68;2.35;;;;;;;11.52;33.48;101240.09;5070615;28;20374;-64
2022/04/04 11:30:20;;;;;;;9.00;2.60;;;;;;;11.66;32.34;101243.69;5060081;28;20045;-61
2022/04/04 11:32:49;;;;;;;8.98;2.42;;;;;;;11.49;31.64;101248.97;5058712;28;20049;-62
2022/04/04 11:35:21;;;;;;;4.78;2.55;;;;;;;10.47;33.13;101239.25;5072469;28;20052;-61
2022/04/04 11:37:58;;;;;;;7.53;2.58;;;;;;;10.16;33.83;101231.47;5069973;28;20052;-58
2022/04/04 11:40:34;;;;;;;8.43;2.30;;;;;;;10.43;34.26;101229.94;5074346;28;20558;-60
2022/04/04 11:43:06;;;;;;;8.50;2.60;;;;;;;10.74;34.42;101229.16;5070599;28;20041;-60
2022/04/04 11:45:37;;;;;;;8.82;2.92;;;;;;;11.04;33.26;101222.28;5055559;28;20053;-60
2022/04/04 11:48:06;;;;;;;7.63;2.53;;;;;;;10.79;32.92;101218.03;5067822;28;20056;-61